sensor_id;sensor_type;location;lat;lon;timestamp;P1;durP1;ratioP1;P2;durP2;ratioP2
35839;SDS011;35514;50.504;30.500;2023-09-19T00:02:21;16.42;;;8.30;;
35839;SDS011;35514;50.504;30.500;2023-09-19T00:04:49;20.75;;;8.73;;
35839;SDS011;35514;50.504;30.500;2023-09-19T00:07:18;17.40;;;8.43;;
35839;SDS011;35514;50.504;30.500;2023-09-19T00:09:48;21.38;;;9.27;;
35839;SDS011;35514;50.504;30.500;2023-09-19T00:12:16;16.40;;;7.63;;
35839;SDS011;35514;50.504;30.500;2023-09-19T00:14:44;16.23;;;8.60;;
35839;SDS011;35514;50.504;30.500;2023-09-19T00:17:12;21.25;;;8.82;;
35839;SDS011;35514;50.504;30.500;2023-09-19T00:19:41;14.35;;;7.30;;
35839;SDS011;35514;50.504;30.500;2023-09-19T00:22:12;14.57;;;7.18;;
35839;SDS011;35514;50.504;30.500;2023-09-19T00:24:42;17.35;;;7.72;;
35839;SDS011;35514;50.504;30.500;2023-09-19T00:27:10;21.58;;;8.63;;
35839;SDS011;35514;50.504;30.500;2023-09-19T00:29:37;19.48;;;7.80;;
35839;SDS011;35514;50.504;30.500;2023-09-19T00:32:06;17.90;;;8.75;;
35839;SDS011;35514;50.504;30.500;2023-09-19T00:34:35;16.63;;;7.63;;
35839;SDS011;35514;50.504;30.500;2023-09-19T00:37:05;14.75;;;7.35;;
35839;SDS011;35514;50.504;30.500;2023-09-19T00:39:33;18.95;;;8.10;;
35839;SDS011;35514;50.504;30.500;2023-09-19T00:42:01;16.80;;;7.80;;
35839;SDS011;35514;50.504;30.500;2023-09-19T00:44:31;14.55;;;7.65;;
35839;SDS011;35514;50.504;30.500;2023-09-19T00:47:01;16.80;;;7.53;;
35839;SDS011;35514;50.504;30.500;2023-09-19T00:49:30;16.10;;;7.45;;
35839;SDS011;35514;50.504;30.500;2023-09-19T00:52:00;18.05;;;8.13;;
35839;SDS011;35514;50.504;30.500;2023-09-19T00:54:29;12.50;;;7.15;;
35839;SDS011;35514;50.504;30.500;2023-09-19T00:56:57;16.63;;;7.53;;
35839;SDS011;35514;50.504;30.500;2023-09-19T00:59:25;24.65;;;7.75;;
35839;SDS011;35514;50.504;30.500;2023-09-19T01:01:53;14.77;;;7.70;;
35839;SDS011;35514;50.504;30.500;2023-09-19T01:04:23;17.85;;;7.65;;
35839;SDS011;35514;50.504;30.500;2023-09-19T01:06:51;14.90;;;7.30;;
35839;SDS011;35514;50.504;30.500;2023-09-19T01:09:19;18.05;;;7.03;;
35839;SDS011;35514;50.504;30.500;2023-09-19T01:11:50;16.85;;;7.88;;
35839;SDS011;35514;50.504;30.500;2023-09-19T01:14:20;17.95;;;7.30;;
35839;SDS011;35514;50.504;30.500;2023-09-19T01:16:56;17.27;;;8.18;;
35839;SDS011;35514;50.504;30.500;2023-09-19T01:22:21;15.70;;;8.15;;
35839;SDS011;35514;50.504;30.500;2023-09-19T01:24:55;21.40;;;8.57;;
35839;SDS011;35514;50.504;30.500;2023-09-19T01:27:39;16.67;;;8.00;;
35839;SDS011;35514;50.504;30.500;2023-09-19T01:30:17;21.27;;;8.43;;
35839;SDS011;35514;50.504;30.500;2023-09-19T01:32:45;16.60;;;8.05;;
35839;SDS011;35514;50.504;30.500;2023-09-19T01:35:13;13.85;;;7.55;;
35839;SDS011;35514;50.504;30.500;2023-09-19T01:37:41;13.80;;;7.32;;
35839;SDS011;35514;50.504;30.500;2023-09-19T01:40:11;20.58;;;7.65;;
35839;SDS011;35514;50.504;30.500;2023-09-19T01:42:44;17.73;;;6.63;;
35839;SDS011;35514;50.504;30.500;2023-09-19T01:45:13;18.38;;;7.07;;
35839;SDS011;35514;50.504;30.500;2023-09-19T01:47:46;12.68;;;7.35;;
35839;SDS011;35514;50.504;30.500;2023-09-19T01:50:17;16.88;;;7.63;;
35839;SDS011;35514;50.504;30.500;2023-09-19T01:52:49;22.55;;;8.30;;
35839;SDS011;35514;50.504;30.500;2023-09-19T01:55:20;19.60;;;8.20;;
35839;SDS011;35514;50.504;30.500;2023-09-19T01:57:51;18.40;;;7.53;;
35839;SDS011;35514;50.504;30.500;2023-09-19T02:00:21;16.60;;;8.15;;
35839;SDS011;35514;50.504;30.500;2023-09-19T02:02:51;16.00;;;8.10;;
35839;SDS011;35514;50.504;30.500;2023-09-19T02:05:22;17.77;;;8.82;;
35839;SDS011;35514;50.504;30.500;2023-09-19T02:07:51;14.50;;;7.68;;
35839;SDS011;35514;50.504;30.500;2023-09-19T02:10:19;13.23;;;7.75;;
35839;SDS011;35514;50.504;30.500;2023-09-19T02:12:47;21.13;;;8.45;;
35839;SDS011;35514;50.504;30.500;2023-09-19T02:15:15;16.35;;;7.90;;
35839;SDS011;35514;50.504;30.500;2023-09-19T02:17:43;14.38;;;8.20;;
35839;SDS011;35514;50.504;30.500;2023-09-19T02:20:14;14.60;;;7.63;;
35839;SDS011;35514;50.504;30.500;2023-09-19T02:22:43;17.38;;;6.72;;
35839;SDS011;35514;50.504;30.500;2023-09-19T02:25:11;17.05;;;7.28;;
35839;SDS011;35514;50.504;30.500;2023-09-19T02:27:40;17.15;;;7.18;;
35839;SDS011;35514;50.504;30.500;2023-09-19T02:30:08;15.98;;;8.00;;
35839;SDS011;35514;50.504;30.500;2023-09-19T02:32:36;20.00;;;7.22;;
35839;SDS011;35514;50.504;30.500;2023-09-19T02:35:06;14.27;;;7.13;;
35839;SDS011;35514;50.504;30.500;2023-09-19T02:37:35;15.40;;;7.05;;
35839;SDS011;35514;50.504;30.500;2023-09-19T02:40:04;20.33;;;7.07;;
35839;SDS011;35514;50.504;30.500;2023-09-19T02:42:39;17.00;;;7.03;;
35839;SDS011;35514;50.504;30.500;2023-09-19T02:45:15;14.60;;;7.15;;
35839;SDS011;35514;50.504;30.500;2023-09-19T02:47:45;14.95;;;7.70;;
35839;SDS011;35514;50.504;30.500;2023-09-19T02:50:13;15.05;;;7.68;;
35839;SDS011;35514;50.504;30.500;2023-09-19T02:52:43;15.68;;;8.10;;
35839;SDS011;35514;50.504;30.500;2023-09-19T02:55:12;17.23;;;7.88;;
35839;SDS011;35514;50.504;30.500;2023-09-19T02:57:40;15.10;;;8.18;;
35839;SDS011;35514;50.504;30.500;2023-09-19T03:00:10;14.05;;;7.38;;
35839;SDS011;35514;50.504;30.500;2023-09-19T03:02:38;23.25;;;8.10;;
35839;SDS011;35514;50.504;30.500;2023-09-19T03:05:08;17.90;;;8.70;;
35839;SDS011;35514;50.504;30.500;2023-09-19T03:07:37;19.73;;;7.80;;
35839;SDS011;35514;50.504;30.500;2023-09-19T03:10:07;17.02;;;7.45;;
35839;SDS011;35514;50.504;30.500;2023-09-19T03:12:35;13.23;;;6.88;;
35839;SDS011;35514;50.504;30.500;2023-09-19T03:15:04;16.95;;;7.55;;
35839;SDS011;35514;50.504;30.500;2023-09-19T03:17:35;17.52;;;7.80;;
35839;SDS011;35514;50.504;30.500;2023-09-19T03:20:04;18.58;;;7.60;;
35839;SDS011;35514;50.504;30.500;2023-09-19T03:22:35;14.23;;;7.47;;
35839;SDS011;35514;50.504;30.500;2023-09-19T03:25:03;18.35;;;7.53;;
35839;SDS011;35514;50.504;30.500;2023-09-19T03:27:35;15.35;;;7.60;;
35839;SDS011;35514;50.504;30.500;2023-09-19T03:30:04;15.13;;;7.22;;
35839;SDS011;35514;50.504;30.500;2023-09-19T03:32:35;15.82;;;8.23;;
35839;SDS011;35514;50.504;30.500;2023-09-19T03:35:03;18.27;;;7.47;;
35839;SDS011;35514;50.504;30.500;2023-09-19T03:37:31;22.88;;;8.07;;
35839;SDS011;35514;50.504;30.500;2023-09-19T03:40:00;21.13;;;8.43;;
35839;SDS011;35514;50.504;30.500;2023-09-19T03:42:32;18.17;;;8.77;;
35839;SDS011;35514;50.504;30.500;2023-09-19T03:45:06;19.58;;;9.13;;
35839;SDS011;35514;50.504;30.500;2023-09-19T03:47:37;13.88;;;8.35;;
35839;SDS011;35514;50.504;30.500;2023-09-19T03:50:05;18.08;;;8.20;;
35839;SDS011;35514;50.504;30.500;2023-09-19T03:52:34;19.25;;;8.68;;
35839;SDS011;35514;50.504;30.500;2023-09-19T03:55:02;14.75;;;7.50;;
35839;SDS011;35514;50.504;30.500;2023-09-19T03:57:31;17.40;;;8.18;;
35839;SDS011;35514;50.504;30.500;2023-09-19T03:59:59;18.17;;;8.20;;
35839;SDS011;35514;50.504;30.500;2023-09-19T04:02:28;18.92;;;8.25;;
35839;SDS011;35514;50.504;30.500;2023-09-19T04:04:59;20.67;;;7.47;;
35839;SDS011;35514;50.504;30.500;2023-09-19T04:07:27;27.35;;;8.13;;
35839;SDS011;35514;50.504;30.500;2023-09-19T04:09:55;17.98;;;7.85;;
35839;SDS011;35514;50.504;30.500;2023-09-19T04:12:23;13.20;;;7.15;;
35839;SDS011;35514;50.504;30.500;2023-09-19T04:14:51;22.10;;;9.07;;
35839;SDS011;35514;50.504;30.500;2023-09-19T04:17:19;16.95;;;8.02;;
35839;SDS011;35514;50.504;30.500;2023-09-19T04:19:48;15.20;;;7.85;;
35839;SDS011;35514;50.504;30.500;2023-09-19T04:22:16;16.55;;;7.05;;
35839;SDS011;35514;50.504;30.500;2023-09-19T04:24:44;19.80;;;7.75;;
35839;SDS011;35514;50.504;30.500;2023-09-19T04:27:12;17.83;;;7.85;;
35839;SDS011;35514;50.504;30.500;2023-09-19T04:29:41;14.75;;;7.82;;
35839;SDS011;35514;50.504;30.500;2023-09-19T04:32:13;28.13;;;9.25;;
35839;SDS011;35514;50.504;30.500;2023-09-19T04:34:42;19.40;;;7.75;;
35839;SDS011;35514;50.504;30.500;2023-09-19T04:37:12;16.40;;;8.23;;
35839;SDS011;35514;50.504;30.500;2023-09-19T04:39:41;22.05;;;8.20;;
35839;SDS011;35514;50.504;30.500;2023-09-19T04:42:09;19.30;;;9.13;;
35839;SDS011;35514;50.504;30.500;2023-09-19T04:44:38;17.23;;;7.10;;
35839;SDS011;35514;50.504;30.500;2023-09-19T04:47:06;18.95;;;7.78;;
35839;SDS011;35514;50.504;30.500;2023-09-19T04:49:34;15.45;;;8.18;;
35839;SDS011;35514;50.504;30.500;2023-09-19T04:52:02;13.60;;;7.20;;
35839;SDS011;35514;50.504;30.500;2023-09-19T04:54:31;15.90;;;7.25;;
35839;SDS011;35514;50.504;30.500;2023-09-19T04:57:00;15.20;;;6.78;;
35839;SDS011;35514;50.504;30.500;2023-09-19T04:59:28;14.35;;;6.68;;
35839;SDS011;35514;50.504;30.500;2023-09-19T05:01:58;18.80;;;6.88;;
35839;SDS011;35514;50.504;30.500;2023-09-19T05:04:26;14.05;;;6.97;;
35839;SDS011;35514;50.504;30.500;2023-09-19T05:06:55;17.65;;;7.80;;
35839;SDS011;35514;50.504;30.500;2023-09-19T05:09:23;14.95;;;7.25;;
35839;SDS011;35514;50.504;30.500;2023-09-19T05:11:52;13.00;;;6.85;;
35839;SDS011;35514;50.504;30.500;2023-09-19T05:14:20;13.68;;;6.55;;
35839;SDS011;35514;50.504;30.500;2023-09-19T05:16:49;16.58;;;6.75;;
35839;SDS011;35514;50.504;30.500;2023-09-19T05:19:17;11.85;;;6.45;;
35839;SDS011;35514;50.504;30.500;2023-09-19T05:21:45;12.60;;;5.97;;
35839;SDS011;35514;50.504;30.500;2023-09-19T05:24:13;12.85;;;6.25;;
35839;SDS011;35514;50.504;30.500;2023-09-19T05:26:43;17.40;;;6.85;;
35839;SDS011;35514;50.504;30.500;2023-09-19T05:29:18;13.60;;;6.45;;
35839;SDS011;35514;50.504;30.500;2023-09-19T05:31:54;16.13;;;5.82;;
35839;SDS011;35514;50.504;30.500;2023-09-19T05:34:22;10.85;;;6.35;;
35839;SDS011;35514;50.504;30.500;2023-09-19T05:36:51;16.08;;;6.65;;
35839;SDS011;35514;50.504;30.500;2023-09-19T05:39:20;12.02;;;6.30;;
35839;SDS011;35514;50.504;30.500;2023-09-19T05:41:49;11.55;;;6.30;;
35839;SDS011;35514;50.504;30.500;2023-09-19T05:44:18;14.32;;;6.93;;
35839;SDS011;35514;50.504;30.500;2023-09-19T05:46:46;17.90;;;7.57;;
35839;SDS011;35514;50.504;30.500;2023-09-19T05:49:14;19.20;;;6.95;;
35839;SDS011;35514;50.504;30.500;2023-09-19T05:51:42;13.88;;;6.38;;
35839;SDS011;35514;50.504;30.500;2023-09-19T05:54:10;16.85;;;6.70;;
35839;SDS011;35514;50.504;30.500;2023-09-19T05:56:38;12.60;;;5.97;;
35839;SDS011;35514;50.504;30.500;2023-09-19T05:59:08;12.25;;;6.20;;
35839;SDS011;35514;50.504;30.500;2023-09-19T06:01:37;13.77;;;5.80;;
35839;SDS011;35514;50.504;30.500;2023-09-19T06:04:05;12.10;;;4.85;;
35839;SDS011;35514;50.504;30.500;2023-09-19T06:06:33;10.10;;;5.25;;
35839;SDS011;35514;50.504;30.500;2023-09-19T06:09:06;12.57;;;5.82;;
35839;SDS011;35514;50.504;30.500;2023-09-19T06:11:34;13.07;;;5.45;;
35839;SDS011;35514;50.504;30.500;2023-09-19T06:14:02;11.40;;;5.82;;
35839;SDS011;35514;50.504;30.500;2023-09-19T06:16:30;14.65;;;6.35;;
35839;SDS011;35514;50.504;30.500;2023-09-19T06:19:06;12.65;;;6.53;;
35839;SDS011;35514;50.504;30.500;2023-09-19T06:21:35;14.43;;;7.03;;
35839;SDS011;35514;50.504;30.500;2023-09-19T06:24:03;12.80;;;5.75;;
35839;SDS011;35514;50.504;30.500;2023-09-19T06:26:31;9.85;;;5.47;;
35839;SDS011;35514;50.504;30.500;2023-09-19T06:28:59;11.85;;;5.50;;
35839;SDS011;35514;50.504;30.500;2023-09-19T06:31:27;16.02;;;6.10;;
35839;SDS011;35514;50.504;30.500;2023-09-19T06:33:58;15.60;;;5.30;;
35839;SDS011;35514;50.504;30.500;2023-09-19T06:36:27;12.38;;;5.55;;
35839;SDS011;35514;50.504;30.500;2023-09-19T06:38:55;15.50;;;5.43;;
35839;SDS011;35514;50.504;30.500;2023-09-19T06:41:23;10.48;;;5.13;;
35839;SDS011;35514;50.504;30.500;2023-09-19T06:43:51;12.90;;;5.85;;
35839;SDS011;35514;50.504;30.500;2023-09-19T06:46:20;9.52;;;5.70;;
35839;SDS011;35514;50.504;30.500;2023-09-19T06:48:48;10.57;;;5.03;;
35839;SDS011;35514;50.504;30.500;2023-09-19T06:51:18;9.52;;;5.38;;
35839;SDS011;35514;50.504;30.500;2023-09-19T06:53:47;17.60;;;5.45;;
35839;SDS011;35514;50.504;30.500;2023-09-19T06:56:15;11.10;;;5.03;;
35839;SDS011;35514;50.504;30.500;2023-09-19T06:58:43;9.65;;;5.45;;
35839;SDS011;35514;50.504;30.500;2023-09-19T07:01:11;13.13;;;5.32;;
35839;SDS011;35514;50.504;30.500;2023-09-19T07:03:41;13.93;;;5.00;;
35839;SDS011;35514;50.504;30.500;2023-09-19T07:06:12;10.07;;;5.47;;
35839;SDS011;35514;50.504;30.500;2023-09-19T07:08:40;7.70;;;4.85;;
35839;SDS011;35514;50.504;30.500;2023-09-19T07:11:09;9.50;;;5.40;;
35839;SDS011;35514;50.504;30.500;2023-09-19T07:13:40;10.77;;;5.57;;
35839;SDS011;35514;50.504;30.500;2023-09-19T07:16:08;13.68;;;4.95;;
35839;SDS011;35514;50.504;30.500;2023-09-19T07:18:40;9.20;;;5.10;;
35839;SDS011;35514;50.504;30.500;2023-09-19T07:21:10;11.13;;;5.28;;
35839;SDS011;35514;50.504;30.500;2023-09-19T07:23:41;7.45;;;4.75;;
35839;SDS011;35514;50.504;30.500;2023-09-19T07:26:11;13.45;;;4.90;;
35839;SDS011;35514;50.504;30.500;2023-09-19T07:28:38;10.95;;;4.70;;
35839;SDS011;35514;50.504;30.500;2023-09-19T07:31:06;14.80;;;5.38;;
35839;SDS011;35514;50.504;30.500;2023-09-19T07:33:36;9.88;;;5.28;;
35839;SDS011;35514;50.504;30.500;2023-09-19T07:36:05;17.00;;;5.53;;
35839;SDS011;35514;50.504;30.500;2023-09-19T07:38:33;8.27;;;4.47;;
35839;SDS011;35514;50.504;30.500;2023-09-19T07:41:02;11.02;;;4.85;;
35839;SDS011;35514;50.504;30.500;2023-09-19T07:43:33;11.73;;;5.30;;
35839;SDS011;35514;50.504;30.500;2023-09-19T07:46:02;10.35;;;5.45;;
35839;SDS011;35514;50.504;30.500;2023-09-19T07:48:34;7.03;;;4.50;;
35839;SDS011;35514;50.504;30.500;2023-09-19T07:51:05;15.68;;;4.43;;
35839;SDS011;35514;50.504;30.500;2023-09-19T07:53:33;9.38;;;4.43;;
35839;SDS011;35514;50.504;30.500;2023-09-19T07:56:02;9.10;;;4.80;;
35839;SDS011;35514;50.504;30.500;2023-09-19T07:58:30;10.77;;;4.85;;
35839;SDS011;35514;50.504;30.500;2023-09-19T08:01:04;6.72;;;4.22;;
35839;SDS011;35514;50.504;30.500;2023-09-19T08:03:33;15.40;;;4.50;;
35839;SDS011;35514;50.504;30.500;2023-09-19T08:06:02;7.72;;;4.25;;
35839;SDS011;35514;50.504;30.500;2023-09-19T08:08:30;7.82;;;4.25;;
35839;SDS011;35514;50.504;30.500;2023-09-19T08:10:58;7.75;;;4.53;;
35839;SDS011;35514;50.504;30.500;2023-09-19T08:13:28;9.82;;;4.15;;
35839;SDS011;35514;50.504;30.500;2023-09-19T08:15:57;5.90;;;3.70;;
35839;SDS011;35514;50.504;30.500;2023-09-19T08:18:27;7.25;;;3.67;;
35839;SDS011;35514;50.504;30.500;2023-09-19T08:20:56;11.15;;;5.85;;
35839;SDS011;35514;50.504;30.500;2023-09-19T08:23:25;6.13;;;3.60;;
35839;SDS011;35514;50.504;30.500;2023-09-19T08:25:55;10.18;;;3.30;;
35839;SDS011;35514;50.504;30.500;2023-09-19T08:28:23;7.43;;;3.50;;
35839;SDS011;35514;50.504;30.500;2023-09-19T08:30:51;5.75;;;3.45;;
35839;SDS011;35514;50.504;30.500;2023-09-19T08:33:21;3.60;;;2.78;;
35839;SDS011;35514;50.504;30.500;2023-09-19T08:35:50;4.65;;;2.78;;
35839;SDS011;35514;50.504;30.500;2023-09-19T08:38:18;11.05;;;3.08;;
35839;SDS011;35514;50.504;30.500;2023-09-19T08:40:46;4.43;;;2.88;;
35839;SDS011;35514;50.504;30.500;2023-09-19T08:43:14;7.45;;;2.95;;
35839;SDS011;35514;50.504;30.500;2023-09-19T08:45:42;5.97;;;2.80;;
35839;SDS011;35514;50.504;30.500;2023-09-19T08:48:22;6.93;;;2.80;;
35839;SDS011;35514;50.504;30.500;2023-09-19T08:50:54;4.18;;;2.70;;
35839;SDS011;35514;50.504;30.500;2023-09-19T08:53:26;6.47;;;2.22;;
35839;SDS011;35514;50.504;30.500;2023-09-19T08:55:56;22.33;;;3.92;;
35839;SDS011;35514;50.504;30.500;2023-09-19T08:58:25;23.42;;;2.70;;
35839;SDS011;35514;50.504;30.500;2023-09-19T09:00:56;4.13;;;2.50;;
35839;SDS011;35514;50.504;30.500;2023-09-19T09:03:29;5.75;;;2.65;;
35839;SDS011;35514;50.504;30.500;2023-09-19T09:06:01;9.85;;;3.03;;
35839;SDS011;35514;50.504;30.500;2023-09-19T09:08:30;4.45;;;2.40;;
35839;SDS011;35514;50.504;30.500;2023-09-19T09:10:58;10.18;;;3.08;;
35839;SDS011;35514;50.504;30.500;2023-09-19T09:13:26;5.78;;;2.67;;
35839;SDS011;35514;50.504;30.500;2023-09-19T09:15:54;6.95;;;2.35;;
35839;SDS011;35514;50.504;30.500;2023-09-19T09:18:22;6.20;;;2.20;;
35839;SDS011;35514;50.504;30.500;2023-09-19T09:20:50;6.47;;;2.50;;
35839;SDS011;35514;50.504;30.500;2023-09-19T09:23:21;7.88;;;2.88;;
35839;SDS011;35514;50.504;30.500;2023-09-19T09:25:52;7.50;;;2.60;;
35839;SDS011;35514;50.504;30.500;2023-09-19T09:28:24;13.15;;;2.75;;
35839;SDS011;35514;50.504;30.500;2023-09-19T09:30:52;4.13;;;2.03;;
35839;SDS011;35514;50.504;30.500;2023-09-19T09:33:20;9.23;;;2.95;;
35839;SDS011;35514;50.504;30.500;2023-09-19T09:35:50;10.77;;;2.50;;
35839;SDS011;35514;50.504;30.500;2023-09-19T09:38:21;7.35;;;2.60;;
35839;SDS011;35514;50.504;30.500;2023-09-19T09:40:52;4.57;;;2.40;;
35839;SDS011;35514;50.504;30.500;2023-09-19T09:43:28;5.80;;;2.40;;
35839;SDS011;35514;50.504;30.500;2023-09-19T09:46:06;8.85;;;3.17;;
35839;SDS011;35514;50.504;30.500;2023-09-19T09:48:55;6.85;;;2.55;;
35839;SDS011;35514;50.504;30.500;2023-09-19T09:51:37;8.27;;;2.70;;
35839;SDS011;35514;50.504;30.500;2023-09-19T09:54:14;6.07;;;2.33;;
35839;SDS011;35514;50.504;30.500;2023-09-19T09:56:52;9.82;;;2.65;;
35839;SDS011;35514;50.504;30.500;2023-09-19T09:59:20;6.00;;;2.40;;
35839;SDS011;35514;50.504;30.500;2023-09-19T10:01:50;7.70;;;3.00;;
35839;SDS011;35514;50.504;30.500;2023-09-19T10:04:27;7.78;;;2.33;;
35839;SDS011;35514;50.504;30.500;2023-09-19T10:06:58;7.20;;;2.50;;
35839;SDS011;35514;50.504;30.500;2023-09-19T10:12:05;4.07;;;2.33;;
35839;SDS011;35514;50.504;30.500;2023-09-19T10:14:37;8.13;;;2.75;;
35839;SDS011;35514;50.504;30.500;2023-09-19T10:17:08;7.28;;;2.90;;
35839;SDS011;35514;50.504;30.500;2023-09-19T10:19:38;7.00;;;3.05;;
35839;SDS011;35514;50.504;30.500;2023-09-19T10:22:13;7.45;;;2.30;;
35839;SDS011;35514;50.504;30.500;2023-09-19T10:24:47;11.43;;;2.60;;
35839;SDS011;35514;50.504;30.500;2023-09-19T10:27:30;10.82;;;3.25;;
35839;SDS011;35514;50.504;30.500;2023-09-19T10:30:05;6.22;;;3.65;;
35839;SDS011;35514;50.504;30.500;2023-09-19T10:32:36;9.52;;;2.55;;
35839;SDS011;35514;50.504;30.500;2023-09-19T10:35:08;10.85;;;2.78;;
35839;SDS011;35514;50.504;30.500;2023-09-19T10:37:43;9.55;;;2.70;;
35839;SDS011;35514;50.504;30.500;2023-09-19T10:40:13;6.43;;;3.15;;
35839;SDS011;35514;50.504;30.500;2023-09-19T10:42:44;4.57;;;2.65;;
35839;SDS011;35514;50.504;30.500;2023-09-19T10:45:13;4.57;;;2.50;;
35839;SDS011;35514;50.504;30.500;2023-09-19T10:47:45;8.13;;;2.85;;
35839;SDS011;35514;50.504;30.500;2023-09-19T10:50:19;10.82;;;3.38;;
35839;SDS011;35514;50.504;30.500;2023-09-19T10:52:48;10.48;;;2.83;;
35839;SDS011;35514;50.504;30.500;2023-09-19T10:55:25;8.93;;;2.30;;
35839;SDS011;35514;50.504;30.500;2023-09-19T10:57:56;8.20;;;2.88;;
35839;SDS011;35514;50.504;30.500;2023-09-19T11:00:26;7.63;;;2.53;;
35839;SDS011;35514;50.504;30.500;2023-09-19T11:05:41;9.32;;;2.50;;
35839;SDS011;35514;50.504;30.500;2023-09-19T11:08:10;9.68;;;3.15;;
35839;SDS011;35514;50.504;30.500;2023-09-19T11:10:45;3.97;;;2.17;;
35839;SDS011;35514;50.504;30.500;2023-09-19T11:13:25;6.45;;;2.47;;
35839;SDS011;35514;50.504;30.500;2023-09-19T11:16:03;10.93;;;2.38;;
35839;SDS011;35514;50.504;30.500;2023-09-19T11:27:08;9.95;;;2.85;;
35839;SDS011;35514;50.504;30.500;2023-09-19T11:29:38;4.18;;;2.25;;
35839;SDS011;35514;50.504;30.500;2023-09-19T11:32:06;6.32;;;2.40;;
35839;SDS011;35514;50.504;30.500;2023-09-19T11:34:48;7.30;;;2.97;;
35839;SDS011;35514;50.504;30.500;2023-09-19T11:40:06;9.80;;;2.53;;
35839;SDS011;35514;50.504;30.500;2023-09-19T11:42:43;7.55;;;2.53;;
35839;SDS011;35514;50.504;30.500;2023-09-19T11:48:04;8.57;;;2.83;;
35839;SDS011;35514;50.504;30.500;2023-09-19T11:50:33;9.60;;;2.58;;
35839;SDS011;35514;50.504;30.500;2023-09-19T11:53:02;5.75;;;2.72;;
35839;SDS011;35514;50.504;30.500;2023-09-19T11:55:32;5.80;;;2.80;;
35839;SDS011;35514;50.504;30.500;2023-09-19T11:58:01;5.10;;;2.55;;
35839;SDS011;35514;50.504;30.500;2023-09-19T12:00:30;8.07;;;2.78;;
35839;SDS011;35514;50.504;30.500;2023-09-19T12:03:13;7.38;;;2.53;;
35839;SDS011;35514;50.504;30.500;2023-09-19T12:05:45;6.28;;;2.50;;
35839;SDS011;35514;50.504;30.500;2023-09-19T12:08:14;8.25;;;2.80;;
35839;SDS011;35514;50.504;30.500;2023-09-19T12:13:20;6.25;;;2.80;;
35839;SDS011;35514;50.504;30.500;2023-09-19T12:15:50;5.60;;;2.65;;
35839;SDS011;35514;50.504;30.500;2023-09-19T12:18:28;13.30;;;2.80;;
35839;SDS011;35514;50.504;30.500;2023-09-19T12:20:59;5.15;;;2.50;;
35839;SDS011;35514;50.504;30.500;2023-09-19T12:23:29;5.63;;;2.80;;
35839;SDS011;35514;50.504;30.500;2023-09-19T12:25:56;4.43;;;2.50;;
35839;SDS011;35514;50.504;30.500;2023-09-19T12:28:26;9.18;;;3.03;;
35839;SDS011;35514;50.504;30.500;2023-09-19T12:31:05;3.67;;;2.53;;
35839;SDS011;35514;50.504;30.500;2023-09-19T12:33:37;5.47;;;2.58;;
35839;SDS011;35514;50.504;30.500;2023-09-19T12:36:19;4.95;;;2.30;;
35839;SDS011;35514;50.504;30.500;2023-09-19T12:38:47;4.28;;;2.58;;
35839;SDS011;35514;50.504;30.500;2023-09-19T12:41:15;5.30;;;2.50;;
35839;SDS011;35514;50.504;30.500;2023-09-19T12:43:45;5.72;;;2.40;;
35839;SDS011;35514;50.504;30.500;2023-09-19T12:46:12;4.15;;;3.00;;
35839;SDS011;35514;50.504;30.500;2023-09-19T12:48:50;9.55;;;2.70;;
35839;SDS011;35514;50.504;30.500;2023-09-19T12:51:39;3.80;;;2.25;;
35839;SDS011;35514;50.504;30.500;2023-09-19T12:54:08;5.40;;;2.58;;
35839;SDS011;35514;50.504;30.500;2023-09-19T12:56:40;7.95;;;2.25;;
35839;SDS011;35514;50.504;30.500;2023-09-19T13:01:45;6.80;;;2.53;;
35839;SDS011;35514;50.504;30.500;2023-09-19T13:04:21;10.48;;;2.72;;
35839;SDS011;35514;50.504;30.500;2023-09-19T13:06:52;6.35;;;2.88;;
35839;SDS011;35514;50.504;30.500;2023-09-19T13:09:22;12.95;;;3.00;;
35839;SDS011;35514;50.504;30.500;2023-09-19T13:11:51;2.97;;;2.03;;
35839;SDS011;35514;50.504;30.500;2023-09-19T13:14:22;4.35;;;2.60;;
35839;SDS011;35514;50.504;30.500;2023-09-19T13:16:57;5.75;;;3.45;;
35839;SDS011;35514;50.504;30.500;2023-09-19T13:19:39;9.77;;;2.80;;
35839;SDS011;35514;50.504;30.500;2023-09-19T13:24:57;9.23;;;2.80;;
35839;SDS011;35514;50.504;30.500;2023-09-19T13:27:26;4.82;;;2.55;;
35839;SDS011;35514;50.504;30.500;2023-09-19T13:29:55;9.25;;;2.50;;
35839;SDS011;35514;50.504;30.500;2023-09-19T13:32:23;6.43;;;2.65;;
35839;SDS011;35514;50.504;30.500;2023-09-19T13:34:52;3.63;;;2.50;;
35839;SDS011;35514;50.504;30.500;2023-09-19T13:37:21;5.50;;;2.58;;
35839;SDS011;35514;50.504;30.500;2023-09-19T13:39:48;8.63;;;2.40;;
35839;SDS011;35514;50.504;30.500;2023-09-19T13:42:16;5.63;;;2.40;;
35839;SDS011;35514;50.504;30.500;2023-09-19T13:44:45;7.07;;;3.10;;
35839;SDS011;35514;50.504;30.500;2023-09-19T13:47:12;12.55;;;2.80;;
35839;SDS011;35514;50.504;30.500;2023-09-19T13:49:41;11.05;;;2.67;;
35839;SDS011;35514;50.504;30.500;2023-09-19T13:52:12;4.13;;;2.50;;
35839;SDS011;35514;50.504;30.500;2023-09-19T13:54:40;5.15;;;2.47;;
35839;SDS011;35514;50.504;30.500;2023-09-19T13:57:08;6.00;;;2.58;;
35839;SDS011;35514;50.504;30.500;2023-09-19T13:59:36;6.57;;;2.55;;
35839;SDS011;35514;50.504;30.500;2023-09-19T14:02:04;12.98;;;3.33;;
35839;SDS011;35514;50.504;30.500;2023-09-19T14:04:33;5.47;;;2.42;;
35839;SDS011;35514;50.504;30.500;2023-09-19T14:07:02;5.82;;;2.75;;
35839;SDS011;35514;50.504;30.500;2023-09-19T14:09:31;4.53;;;2.60;;
35839;SDS011;35514;50.504;30.500;2023-09-19T14:12:00;6.93;;;2.75;;
35839;SDS011;35514;50.504;30.500;2023-09-19T14:14:28;7.55;;;3.92;;
35839;SDS011;35514;50.504;30.500;2023-09-19T14:16:56;6.30;;;3.17;;
35839;SDS011;35514;50.504;30.500;2023-09-19T14:19:28;6.68;;;2.92;;
35839;SDS011;35514;50.504;30.500;2023-09-19T14:21:56;5.10;;;2.70;;
35839;SDS011;35514;50.504;30.500;2023-09-19T14:24:24;5.13;;;2.97;;
35839;SDS011;35514;50.504;30.500;2023-09-19T14:26:53;6.25;;;3.13;;
35839;SDS011;35514;50.504;30.500;2023-09-19T14:29:21;6.00;;;3.00;;
35839;SDS011;35514;50.504;30.500;2023-09-19T14:31:49;5.85;;;2.92;;
35839;SDS011;35514;50.504;30.500;2023-09-19T14:34:18;7.30;;;3.22;;
35839;SDS011;35514;50.504;30.500;2023-09-19T14:36:46;5.90;;;3.50;;
35839;SDS011;35514;50.504;30.500;2023-09-19T14:39:15;4.97;;;2.78;;
35839;SDS011;35514;50.504;30.500;2023-09-19T14:41:43;6.05;;;3.15;;
35839;SDS011;35514;50.504;30.500;2023-09-19T14:44:12;10.25;;;3.67;;
35839;SDS011;35514;50.504;30.500;2023-09-19T14:46:42;6.95;;;2.95;;
35839;SDS011;35514;50.504;30.500;2023-09-19T14:49:11;6.00;;;3.20;;
35839;SDS011;35514;50.504;30.500;2023-09-19T14:51:39;8.20;;;3.55;;
35839;SDS011;35514;50.504;30.500;2023-09-19T14:54:07;11.38;;;3.55;;
35839;SDS011;35514;50.504;30.500;2023-09-19T15:03:25;8.02;;;3.30;;
35839;SDS011;35514;50.504;30.500;2023-09-19T15:05:58;15.30;;;3.80;;
35839;SDS011;35514;50.504;30.500;2023-09-19T15:08:27;8.00;;;3.38;;
35839;SDS011;35514;50.504;30.500;2023-09-19T15:10:54;10.82;;;3.35;;
35839;SDS011;35514;50.504;30.500;2023-09-19T15:13:24;12.00;;;3.50;;
35839;SDS011;35514;50.504;30.500;2023-09-19T15:15:58;7.95;;;3.50;;
35839;SDS011;35514;50.504;30.500;2023-09-19T15:18:27;9.80;;;4.18;;
35839;SDS011;35514;50.504;30.500;2023-09-19T15:20:56;5.13;;;3.25;;